7NK9 weather

CLOSED Women And Children'S Hospital Heliport
Buffalo, New York, United States

Public forecast

Using degrees Fahrenheit for public forecast. Weather courtesy of forecast.io.

Closest aviation weather report (METAR) to Women And Children'S Hospital Heliport

Closest report is Buffalo Niagara International Airport, 6.5 nm (12.1 km) ENE. Retrieved 2019/10/17 10:54 UTC (59 minutes ago):

KBUF 171054Z 31014G25KT 10SM SCT010 BKN015 OVC020 07/05 A2949 RMK AO2 PK WND 30028/1043 RAB0955E50 SLP988 P0001 T00720050

Closest aviation forecast (TAF) to Women And Children'S Hospital Heliport

Closest forecast is Buffalo Niagara International Airport, 6.5 nm (12.1 km) ENE. Retrieved 2019/10/17 06:40 UTC (5 hours ago):

TAF KBUF 170537Z 1706/1806 28010G18KT P6SM VCSH OVC020 FM170800 29013G20KT P6SM VCSH OVC015 FM171000 29016G26KT 6SM -SHRA BR OVC015 FM171800 30015G21KT P6SM VCSH OVC015 FM172000 30017G25KT P6SM VCSH OVC020 FM180200 30012KT P6SM OVC020